createdAt,value
2022-10-23T00:01:40.301Z,102638.91
2022-10-23T00:04:19.562Z,102636.84
2022-10-23T00:06:48.657Z,102630.56
2022-10-23T00:09:19.593Z,102630.25
2022-10-23T00:11:48.333Z,102639.63
2022-10-23T00:14:18.268Z,102636.97
2022-10-23T00:16:46.061Z,102621.63
2022-10-23T00:19:13.504Z,102629.88
2022-10-23T00:21:45.207Z,102630.44
2022-10-23T00:24:12.753Z,102627.81
2022-10-23T00:26:40.886Z,102626.66
2022-10-23T00:29:09.790Z,102618.88
2022-10-23T00:31:38.604Z,102618.72
2022-10-23T00:34:08.737Z,102619.97
2022-10-23T00:36:38.205Z,102617.00
2022-10-23T00:39:09.031Z,102606.97
2022-10-23T00:41:50.295Z,102623.03
2022-10-23T00:44:20.448Z,102616.59
2022-10-23T00:46:48.059Z,102619.25
2022-10-23T00:49:16.388Z,102623.00
2022-10-23T00:51:48.140Z,102622.16
2022-10-23T00:54:23.868Z,102627.69
2022-10-23T00:56:58.057Z,102616.84
2022-10-23T00:59:25.717Z,102621.44
2022-10-23T01:01:53.458Z,102619.34
2022-10-23T01:04:21.908Z,102622.94
2022-10-23T01:07:31.386Z,102623.81
2022-10-23T01:10:23.781Z,102630.81
2022-10-23T01:13:02.587Z,102629.38
2022-10-23T01:15:38.141Z,102631.59
2022-10-23T01:18:13.446Z,102622.41
2022-10-23T01:20:55.090Z,102628.00
2022-10-23T01:23:59.846Z,102613.31
2022-10-23T01:26:36.150Z,102619.84
2022-10-23T01:29:23.863Z,102621.53
2022-10-23T01:32:13.661Z,102620.84
2022-10-23T01:34:57.617Z,102615.28
2022-10-23T01:37:31.496Z,102618.88
2022-10-23T01:40:05.689Z,102610.69
2022-10-23T01:42:39.008Z,102612.63
2022-10-23T01:45:45.222Z,102615.97
2022-10-23T01:48:22.168Z,102618.19
2022-10-23T01:50:51.926Z,102612.63
2022-10-23T01:53:20.777Z,102607.63
2022-10-23T01:55:50.148Z,102623.34
2022-10-23T01:58:24.998Z,102612.63
2022-10-23T02:00:56.079Z,102616.69
2022-10-23T02:03:24.921Z,102621.44
2022-10-23T02:05:52.605Z,102620.47
2022-10-23T02:08:20.197Z,102624.66
2022-10-23T02:13:37.737Z,102629.41
2022-10-23T02:16:19.707Z,102623.28
2022-10-23T02:19:06.679Z,102622.31
2022-10-23T02:21:55.465Z,102619.41
2022-10-23T02:24:52.238Z,102623.72
2022-10-23T02:27:51.142Z,102615.19
2022-10-23T02:30:20.692Z,102613.41
2022-10-23T02:33:11.167Z,102607.97
2022-10-23T02:35:38.839Z,102607.69
2022-10-23T02:38:34.581Z,102615.34
2022-10-23T02:41:27.738Z,102609.34
2022-10-23T02:44:13.683Z,102610.50
2022-10-23T02:46:46.919Z,102615.53
2022-10-23T02:49:42.229Z,102616.38
2022-10-23T02:52:22.124Z,102616.38
2022-10-23T02:54:49.501Z,102614.69
2022-10-23T02:57:25.373Z,102616.38
2022-10-23T03:00:05.246Z,102609.25
2022-10-23T03:02:59.346Z,102607.44
2022-10-23T03:05:39.042Z,102611.91
2022-10-23T03:08:09.834Z,102614.38
2022-10-23T03:10:37.336Z,102620.81
2022-10-23T03:13:07.202Z,102617.47
2022-10-23T03:15:41.144Z,102607.44
2022-10-23T03:18:12.695Z,102614.13
2022-10-23T03:20:41.965Z,102606.06
2022-10-23T03:23:13.307Z,102609.69
2022-10-23T03:25:40.925Z,102611.25
2022-10-23T03:28:08.466Z,102610.00
2022-10-23T03:30:36.588Z,102612.09
2022-10-23T03:33:04.155Z,102608.03
2022-10-23T03:35:34.750Z,102607.75
2022-10-23T03:38:02.403Z,102607.50
2022-10-23T03:40:29.907Z,102609.19
2022-10-23T03:42:57.458Z,102604.84
2022-10-23T03:45:25.049Z,102606.66
2022-10-23T03:47:52.542Z,102612.53
2022-10-23T03:50:20.215Z,102609.88
2022-10-23T03:52:48.351Z,102607.78
2022-10-23T03:55:15.888Z,102609.31
2022-10-23T03:57:43.353Z,102609.06
2022-10-23T04:00:11.439Z,102610.44
2022-10-23T04:02:45.253Z,102607.53
2022-10-23T04:05:13.301Z,102613.25
2022-10-23T04:07:49.199Z,102610.44
2022-10-23T04:10:17.908Z,102612.00
2022-10-23T04:12:46.168Z,102601.94
2022-10-23T04:15:13.743Z,102601.50
2022-10-23T04:17:44.531Z,102592.06
2022-10-23T04:20:12.864Z,102587.03
2022-10-23T04:22:40.596Z,102595.00
2022-10-23T04:25:11.354Z,102595.25
2022-10-23T04:27:39.609Z,102595.69
2022-10-23T04:30:07.893Z,102585.47
2022-10-23T04:32:35.491Z,102613.53
2022-10-23T04:35:05.305Z,102606.84
2022-10-23T04:37:32.929Z,102606.53
2022-10-23T04:40:01.317Z,102607.81
2022-10-23T04:42:30.416Z,102612.53
2022-10-23T04:45:00.385Z,102613.66
2022-10-23T04:47:28.773Z,102614.75
2022-10-23T04:49:58.776Z,102619.06
2022-10-23T04:52:45.092Z,102619.31
2022-10-23T04:55:39.275Z,102612.06
2022-10-23T04:58:17.178Z,102619.28
2022-10-23T05:00:47.251Z,102621.09
2022-10-23T05:03:22.470Z,102618.59
2022-10-23T05:05:54.737Z,102617.84
2022-10-23T05:08:28.226Z,102612.91
2022-10-23T05:11:21.617Z,102616.00
2022-10-23T05:13:51.127Z,102613.97
2022-10-23T05:16:50.724Z,102615.75
2022-10-23T05:19:26.775Z,102617.53
2022-10-23T05:21:56.271Z,102622.25
2022-10-23T05:24:33.342Z,102611.09
2022-10-23T05:27:03.173Z,102610.97
2022-10-23T05:29:32.135Z,102613.03
2022-10-23T05:32:05.690Z,102615.59
2022-10-23T05:34:36.860Z,102609.34
2022-10-23T05:37:08.669Z,102612.94
2022-10-23T05:39:38.558Z,102607.13
2022-10-23T05:42:10.905Z,102603.84
2022-10-23T05:44:39.461Z,102606.50
2022-10-23T05:47:32.111Z,102596.84
2022-10-23T05:50:12.994Z,102590.22
2022-10-23T05:52:59.889Z,102588.38
2022-10-23T05:55:47.360Z,102596.63
2022-10-23T05:58:38.102Z,102587.75
2022-10-23T06:01:31.275Z,102590.25
2022-10-23T06:04:04.277Z,102592.41
2022-10-23T06:06:57.278Z,102599.59
2022-10-23T06:09:25.221Z,102593.38
2022-10-23T06:11:57.430Z,102602.22
2022-10-23T06:14:24.936Z,102597.34
2022-10-23T06:16:53.001Z,102602.97
2022-10-23T06:19:21.383Z,102601.97
2022-10-23T06:21:53.153Z,102590.41
2022-10-23T06:24:25.419Z,102593.63
2022-10-23T06:26:57.242Z,102597.50
2022-10-23T06:29:45.539Z,102591.97
2022-10-23T06:32:13.475Z,102590.84
2022-10-23T06:34:45.951Z,102588.22
2022-10-23T06:37:13.458Z,102586.66
2022-10-23T06:39:56.050Z,102583.31
2022-10-23T06:42:35.758Z,102589.53
2022-10-23T06:45:41.537Z,102590.63
2022-10-23T06:48:15.743Z,102589.25
2022-10-23T06:51:06.405Z,102590.50
2022-10-23T06:53:39.729Z,102586.94
2022-10-23T06:56:18.918Z,102574.78
2022-10-23T06:58:46.586Z,102577.75
2022-10-23T07:01:16.772Z,102574.13
2022-10-23T07:03:45.769Z,102579.06
2022-10-23T07:06:15.906Z,102578.78
2022-10-23T07:08:43.666Z,102580.53
2022-10-23T07:11:31.059Z,102571.56
2022-10-23T07:13:58.994Z,102568.06
2022-10-23T07:16:26.443Z,102569.50
2022-10-23T07:18:59.802Z,102567.38
2022-10-23T07:21:29.966Z,102567.75
2022-10-23T07:24:09.009Z,102559.13
2022-10-23T07:26:41.715Z,102559.69
2022-10-23T07:29:09.587Z,102563.69
2022-10-23T07:31:37.241Z,102574.88
2022-10-23T07:34:25.343Z,102573.19
2022-10-23T07:37:11.074Z,102574.81
2022-10-23T07:39:38.675Z,102573.06
2022-10-23T07:42:06.219Z,102567.28
2022-10-23T07:44:35.047Z,102561.06
2022-10-23T07:47:02.522Z,102571.00
2022-10-23T07:49:31.026Z,102577.44
2022-10-23T07:51:59.095Z,102581.03
2022-10-23T07:54:35.327Z,102575.97
2022-10-23T07:57:20.526Z,102578.16
2022-10-23T07:59:56.634Z,102572.88
2022-10-23T08:02:25.330Z,102578.84
2022-10-23T08:04:53.603Z,102586.72
2022-10-23T08:07:27.859Z,102577.00
2022-10-23T08:10:00.610Z,102577.34
2022-10-23T08:12:33.144Z,102564.47
2022-10-23T08:15:00.745Z,102567.91
2022-10-23T08:17:39.708Z,102563.63
2022-10-23T08:20:14.341Z,102555.19
2022-10-23T08:22:44.405Z,102565.00
2022-10-23T08:25:14.574Z,102562.56
2022-10-23T08:27:42.401Z,102558.44
2022-10-23T08:30:10.625Z,102563.69
2022-10-23T08:32:38.271Z,102555.66
2022-10-23T08:35:06.654Z,102555.25
2022-10-23T08:37:34.586Z,102545.09
2022-10-23T08:40:04.435Z,102546.88
2022-10-23T08:43:14.957Z,102549.78
2022-10-23T08:46:08.557Z,102547.22
2022-10-23T08:49:41.634Z,102544.22
2022-10-23T08:52:14.900Z,102530.91
2022-10-23T08:55:17.872Z,102541.75
2022-10-23T08:58:15.267Z,102543.84
2022-10-23T09:00:44.829Z,102532.25
2022-10-23T09:03:13.522Z,102538.91
2022-10-23T09:05:55.203Z,102540.97
2022-10-23T09:08:34.474Z,102529.69
2022-10-23T09:11:12.047Z,102529.19
2022-10-23T09:13:55.322Z,102522.81
2022-10-23T09:16:22.656Z,102512.50
2022-10-23T09:18:50.968Z,102507.56
2022-10-23T09:21:18.495Z,102502.78
2022-10-23T09:23:45.929Z,102502.19
2022-10-23T09:26:16.411Z,102498.47
2022-10-23T09:28:50.130Z,102490.38
2022-10-23T09:31:19.873Z,102496.34
2022-10-23T09:33:58.290Z,102484.56
2022-10-23T09:36:29.433Z,102491.22
2022-10-23T09:38:59.599Z,102494.28
2022-10-23T09:41:30.983Z,102489.69
2022-10-23T09:44:21.379Z,102478.50
2022-10-23T09:46:54.244Z,102472.03
2022-10-23T09:49:27.619Z,102469.31
2022-10-23T09:52:02.526Z,102464.97
2022-10-23T09:54:33.643Z,102462.94
2022-10-23T09:57:20.196Z,102459.84
2022-10-23T10:00:00.025Z,102449.69
2022-10-23T10:02:36.891Z,102454.88
2022-10-23T10:05:39.152Z,102449.66
2022-10-23T10:08:51.086Z,102442.44
2022-10-23T10:11:28.495Z,102433.94
2022-10-23T10:14:05.972Z,102423.78
2022-10-23T10:16:33.407Z,102427.94
2022-10-23T10:19:13.120Z,102424.25
2022-10-23T10:22:09.917Z,102421.34
2022-10-23T10:25:03.384Z,102433.13
2022-10-23T10:27:53.251Z,102429.38
2022-10-23T10:30:25.816Z,102430.22
2022-10-23T10:33:06.558Z,102422.56
2022-10-23T10:35:55.797Z,102416.75
2022-10-23T10:38:47.803Z,102410.03
2022-10-23T10:41:40.606Z,102420.34
2022-10-23T10:44:46.554Z,102416.81
2022-10-23T10:47:21.385Z,102405.72
2022-10-23T10:49:56.727Z,102397.38
2022-10-23T10:53:13.199Z,102405.72
2022-10-23T10:55:47.224Z,102389.94
2022-10-23T10:58:25.374Z,102387.47
2022-10-23T11:00:59.336Z,102385.16
2022-10-23T11:03:34.828Z,102382.84
2022-10-23T11:06:10.748Z,102379.03
2022-10-23T11:08:56.286Z,102381.34
2022-10-23T11:11:33.545Z,102359.19
2022-10-23T11:14:02.325Z,102360.13
2022-10-23T11:16:40.016Z,102353.53
2022-10-23T11:19:26.909Z,102353.59
2022-10-23T11:23:16.811Z,102354.72
2022-10-23T11:25:38.736Z,102352.25
2022-10-23T11:28:15.036Z,102349.56
2022-10-23T11:31:08.212Z,102352.03
2022-10-23T11:34:21.746Z,102347.50
2022-10-23T11:36:56.148Z,102349.94
2022-10-23T11:39:32.573Z,102343.69
2022-10-23T11:42:07.991Z,102341.47
2022-10-23T11:44:37.102Z,102344.97
2022-10-23T11:47:25.962Z,102333.50
2022-10-23T11:50:08.272Z,102335.88
2022-10-23T11:52:45.535Z,102328.34
2022-10-23T11:55:21.573Z,102324.38
2022-10-23T11:58:07.501Z,102327.88
2022-10-23T12:00:40.719Z,102334.84
2022-10-23T12:03:20.719Z,102331.22
2022-10-23T12:08:32.886Z,102323.16
2022-10-23T12:11:00.474Z,102331.00
2022-10-23T12:13:39.653Z,102320.41
2022-10-23T12:16:08.322Z,102328.94
2022-10-23T12:18:56.639Z,102315.59
2022-10-23T12:21:28.730Z,102316.44
2022-10-23T12:24:14.522Z,102332.41
2022-10-23T12:27:06.035Z,102332.22
2022-10-23T12:29:56.507Z,102327.22
2022-10-23T12:32:33.690Z,102327.50
2022-10-23T12:35:49.223Z,102329.59
2022-10-23T12:38:22.553Z,102330.00
2022-10-23T12:40:56.926Z,102326.66
2022-10-23T12:43:36.528Z,102322.06
2022-10-23T12:46:17.898Z,102327.97
2022-10-23T12:48:50.831Z,102324.97
2022-10-23T12:51:25.118Z,102324.31
2022-10-23T12:53:52.542Z,102318.44
2022-10-23T12:56:20.557Z,102313.56
2022-10-23T12:58:52.047Z,102303.13
2022-10-23T13:01:28.657Z,102305.31
2022-10-23T13:04:13.898Z,102306.28
2022-10-23T13:06:41.707Z,102315.25
2022-10-23T13:09:20.450Z,102302.28
2022-10-23T13:12:09.574Z,102296.47
2022-10-23T13:14:57.493Z,102291.03
2022-10-23T13:17:38.964Z,102291.94
2022-10-23T13:20:18.532Z,102292.88
2022-10-23T13:22:48.920Z,102284.13
2022-10-23T13:25:25.094Z,102277.19
2022-10-23T13:28:03.582Z,102268.59
2022-10-23T13:30:33.902Z,102261.88
2022-10-23T13:33:01.454Z,102273.28
2022-10-23T13:35:28.893Z,102268.66
2022-10-23T13:37:56.379Z,102262.25
2022-10-23T13:40:28.214Z,102264.00
2022-10-23T13:42:57.508Z,102265.91
2022-10-23T13:45:26.850Z,102266.13
2022-10-23T13:47:54.297Z,102267.88
2022-10-23T13:50:21.854Z,102270.78
2022-10-23T13:52:49.314Z,102264.19
2022-10-23T13:55:25.090Z,102261.41
2022-10-23T13:57:52.701Z,102263.44
2022-10-23T14:00:23.021Z,102257.50
2022-10-23T14:02:51.717Z,102249.34
2022-10-23T14:05:19.235Z,102250.22
2022-10-23T14:07:46.880Z,102245.22
2022-10-23T14:10:14.450Z,102230.63
2022-10-23T14:12:43.658Z,102240.28
2022-10-23T14:15:12.013Z,102241.66
2022-10-23T14:17:39.616Z,102237.19
2022-10-23T14:20:08.774Z,102236.53
2022-10-23T14:22:36.271Z,102237.03
2022-10-23T14:25:06.193Z,102242.53
2022-10-23T14:27:33.750Z,102227.06
2022-10-23T14:30:01.278Z,102228.22
2022-10-23T14:32:28.778Z,102230.41
2022-10-23T14:34:56.286Z,102229.94
2022-10-23T14:37:26.575Z,102228.44
2022-10-23T14:39:53.976Z,102219.47
2022-10-23T14:42:21.439Z,102219.81
2022-10-23T14:44:50.255Z,102223.47
2022-10-23T14:47:21.558Z,102221.13
2022-10-23T14:49:56.417Z,102213.50
2022-10-23T14:52:24.809Z,102226.00
2022-10-23T14:54:53.662Z,102228.66
2022-10-23T15:00:05.839Z,102208.53
2022-10-23T15:02:33.337Z,102210.56
2022-10-23T15:07:41.990Z,102205.22
2022-10-23T15:10:10.384Z,102211.72
2022-10-23T15:12:39.477Z,102210.22
2022-10-23T15:15:08.211Z,102211.38
2022-10-23T15:17:37.360Z,102206.75
2022-10-23T15:20:09.055Z,102207.91
2022-10-23T15:22:36.562Z,102209.22
2022-10-23T15:25:04.194Z,102202.94
2022-10-23T15:30:18.027Z,102201.94
2022-10-23T15:32:45.515Z,102211.75
2022-10-23T15:35:12.942Z,102206.75
2022-10-23T15:37:40.479Z,102193.63
2022-10-23T15:40:08.719Z,102205.94
2022-10-23T15:42:36.181Z,102200.25
2022-10-23T15:45:03.847Z,102203.44
2022-10-23T15:47:31.387Z,102199.94
2022-10-23T15:49:58.791Z,102196.09
2022-10-23T15:52:26.210Z,102196.31
2022-10-23T15:54:54.679Z,102185.97
2022-10-23T15:57:22.082Z,102191.59
2022-10-23T15:59:51.290Z,102189.09
2022-10-23T16:02:18.866Z,102185.94
2022-10-23T16:04:46.440Z,102182.25
2022-10-23T16:07:13.822Z,102176.09
2022-10-23T16:09:41.318Z,102165.63
2022-10-23T16:12:08.962Z,102165.31
2022-10-23T16:14:36.366Z,102161.59
2022-10-23T16:17:04.056Z,102158.94
2022-10-23T16:19:31.492Z,102156.28
2022-10-23T16:21:58.906Z,102157.28
2022-10-23T16:24:26.590Z,102154.28
2022-10-23T16:26:56.601Z,102152.63
2022-10-23T16:29:25.947Z,102149.28
2022-10-23T16:31:54.678Z,102149.28
2022-10-23T16:34:22.953Z,102143.28
2022-10-23T16:36:50.525Z,102143.28
2022-10-23T16:39:28.751Z,102131.81
2022-10-23T16:42:34.748Z,102130.31
2022-10-23T16:45:11.308Z,102116.16
2022-10-23T16:47:38.815Z,102126.31
2022-10-23T16:50:06.522Z,102122.69
2022-10-23T16:52:39.728Z,102113.69
2022-10-23T16:55:08.031Z,102116.31
2022-10-23T16:57:36.746Z,102115.19
2022-10-23T17:00:09.314Z,102114.34
2022-10-23T17:02:37.985Z,102106.69
2022-10-23T17:05:06.050Z,102102.72
2022-10-23T17:07:33.490Z,102106.34
2022-10-23T17:10:00.890Z,102105.84
2022-10-23T17:12:28.343Z,102098.53
2022-10-23T17:14:55.748Z,102098.38
2022-10-23T17:17:23.207Z,102098.69
2022-10-23T17:19:50.653Z,102097.31
2022-10-23T17:22:18.138Z,102096.84
2022-10-23T17:24:48.718Z,102098.31
2022-10-23T17:27:19.410Z,102090.84
2022-10-23T17:29:49.666Z,102091.00
2022-10-23T17:32:17.226Z,102100.25
2022-10-23T17:34:44.871Z,102083.47
2022-10-23T17:37:14.633Z,102087.09
2022-10-23T17:39:42.146Z,102083.78
2022-10-23T17:42:09.897Z,102084.09
2022-10-23T17:44:37.344Z,102079.59
2022-10-23T17:47:05.003Z,102079.13
2022-10-23T17:49:32.535Z,102080.56
2022-10-23T17:52:00.065Z,102074.56
2022-10-23T17:54:27.960Z,102069.75
2022-10-23T17:56:55.607Z,102074.56
2022-10-23T17:59:23.101Z,102059.56
2022-10-23T18:01:51.436Z,102066.25
2022-10-23T18:04:21.111Z,102068.22
2022-10-23T18:06:52.954Z,102071.03
2022-10-23T18:09:21.606Z,102076.88
2022-10-23T18:11:50.396Z,102068.69
2022-10-23T18:14:19.421Z,102052.91
2022-10-23T18:16:47.109Z,102058.22
2022-10-23T18:19:18.393Z,102057.56
2022-10-23T18:21:46.903Z,102050.44
2022-10-23T18:24:14.811Z,102053.56
2022-10-23T18:26:43.073Z,102048.25
2022-10-23T18:29:15.783Z,102040.44
2022-10-23T18:31:43.690Z,102041.56
2022-10-23T18:34:20.807Z,102045.56
2022-10-23T18:36:49.585Z,102040.09
2022-10-23T18:39:22.489Z,102034.09
2022-10-23T18:41:56.771Z,102037.75
2022-10-23T18:44:27.243Z,102032.06
2022-10-23T18:46:57.134Z,102024.75
2022-10-23T18:49:27.236Z,102027.25
2022-10-23T18:51:54.916Z,102027.94
2022-10-23T18:54:22.691Z,102026.56
2022-10-23T18:56:50.152Z,102022.63
2022-10-23T18:59:19.807Z,102025.28
2022-10-23T19:01:47.692Z,102025.28
2022-10-23T19:04:18.029Z,102023.75
2022-10-23T19:06:50.200Z,102027.75
2022-10-23T19:09:18.077Z,102019.97
2022-10-23T19:11:45.759Z,102020.88
2022-10-23T19:14:13.272Z,102023.06
2022-10-23T19:16:43.211Z,102016.94
2022-10-23T19:19:23.335Z,102011.78
2022-10-23T19:21:51.818Z,102011.81
2022-10-23T19:24:35.937Z,102000.75
2022-10-23T19:27:03.905Z,102001.56
2022-10-23T19:29:32.135Z,102004.41
2022-10-23T19:32:00.463Z,102002.66
2022-10-23T19:34:28.335Z,102002.66
2022-10-23T19:36:56.022Z,101995.53
2022-10-23T19:39:25.313Z,101998.53
2022-10-23T19:41:53.691Z,101997.53
2022-10-23T19:44:21.807Z,101997.91
2022-10-23T19:46:49.658Z,101993.28
2022-10-23T19:49:18.270Z,101993.91
2022-10-23T19:51:50.950Z,101988.28
2022-10-23T19:54:20.696Z,101993.13
2022-10-23T19:56:48.785Z,101979.34
2022-10-23T19:59:16.665Z,101980.84
2022-10-23T20:01:47.816Z,101986.97
2022-10-23T20:04:18.551Z,101983.16
2022-10-23T20:06:46.824Z,101974.84
2022-10-23T20:09:14.485Z,101969.22
2022-10-23T20:11:43.738Z,101970.22
2022-10-23T20:14:12.145Z,101961.09
2022-10-23T20:16:40.133Z,101951.94
2022-10-23T20:19:10.401Z,101955.13
2022-10-23T20:21:40.180Z,101947.16
2022-10-23T20:24:08.948Z,101942.66
2022-10-23T20:26:44.956Z,101939.19
2022-10-23T20:29:12.902Z,101937.72
2022-10-23T20:31:40.468Z,101926.91
2022-10-23T20:34:08.444Z,101920.09
2022-10-23T20:36:45.451Z,101916.94
2022-10-23T20:39:18.759Z,101907.81
2022-10-23T20:41:48.956Z,101910.78
2022-10-23T20:44:18.339Z,101899.84
2022-10-23T20:46:46.119Z,101896.66
2022-10-23T20:49:14.641Z,101899.66
2022-10-23T20:51:42.839Z,101904.00
2022-10-23T20:54:10.463Z,101905.00
2022-10-23T20:56:39.239Z,101897.00
2022-10-23T20:59:12.126Z,101888.03
2022-10-23T21:01:41.898Z,101893.03
2022-10-23T21:04:14.397Z,101898.34
2022-10-23T21:06:57.653Z,101891.84
2022-10-23T21:09:31.025Z,101885.72
2022-10-23T21:11:58.511Z,101895.66
2022-10-23T21:14:27.465Z,101888.69
2022-10-23T21:16:54.850Z,101876.56
2022-10-23T21:19:22.354Z,101876.41
2022-10-23T21:21:49.735Z,101877.72
2022-10-23T21:24:17.582Z,101875.06
2022-10-23T21:26:45.768Z,101866.44
2022-10-23T21:29:18.945Z,101870.75
2022-10-23T21:31:53.539Z,101871.06
2022-10-23T21:34:21.178Z,101875.41
2022-10-23T21:37:11.224Z,101873.25
2022-10-23T21:39:36.088Z,101858.63
2022-10-23T21:42:06.017Z,101867.75
2022-10-23T21:44:33.535Z,101870.25
2022-10-23T21:47:01.021Z,101860.44
2022-10-23T21:49:28.503Z,101856.78
2022-10-23T21:51:55.928Z,101863.28
2022-10-23T21:54:23.585Z,101862.78
2022-10-23T21:56:54.103Z,101866.59
2022-10-23T21:59:25.228Z,101869.09
2022-10-23T22:01:54.270Z,101870.25
2022-10-23T22:04:22.648Z,101869.41
2022-10-23T22:06:50.609Z,101872.06
2022-10-23T22:09:20.222Z,101867.44
2022-10-23T22:11:50.522Z,101868.09
2022-10-23T22:14:18.456Z,101866.09
2022-10-23T22:16:46.293Z,101861.47
2022-10-23T22:19:15.883Z,101867.13
2022-10-23T22:21:43.739Z,101861.59
2022-10-23T22:24:11.266Z,101855.13
2022-10-23T22:26:45.101Z,101840.84
2022-10-23T22:29:15.328Z,101851.81
2022-10-23T22:31:45.681Z,101852.31
2022-10-23T22:34:47.970Z,101849.97
2022-10-23T22:37:13.969Z,101847.16
2022-10-23T22:39:41.802Z,101856.28
2022-10-23T22:42:09.733Z,101853.63
2022-10-23T22:44:37.165Z,101844.19
2022-10-23T22:47:04.772Z,101841.16
2022-10-23T22:49:32.257Z,101832.19
2022-10-23T22:52:02.744Z,101825.91
2022-10-23T22:54:31.668Z,101833.69
2022-10-23T22:56:59.262Z,101827.88
2022-10-23T22:59:26.792Z,101831.00
2022-10-23T23:01:54.801Z,101819.38
2022-10-23T23:04:39.001Z,101823.22
2022-10-23T23:07:13.109Z,101813.91
2022-10-23T23:09:42.837Z,101811.09
2022-10-23T23:12:13.107Z,101804.78
2022-10-23T23:14:41.188Z,101796.00
2022-10-23T23:17:12.152Z,101793.47
2022-10-23T23:19:39.905Z,101789.97
2022-10-23T23:22:07.363Z,101785.16
2022-10-23T23:24:35.071Z,101769.38
2022-10-23T23:27:02.609Z,101770.03
2022-10-23T23:29:32.754Z,101770.50
2022-10-23T23:32:00.192Z,101767.19
2022-10-23T23:34:29.033Z,101766.00
2022-10-23T23:36:56.477Z,101765.84
2022-10-23T23:39:24.112Z,101755.03
2022-10-23T23:41:51.563Z,101744.75
2022-10-23T23:44:18.954Z,101746.06
2022-10-23T23:46:46.362Z,101729.16
2022-10-23T23:49:13.828Z,101727.94
2022-10-23T23:51:41.346Z,101734.06
2022-10-23T23:54:08.843Z,101728.22
2022-10-23T23:56:36.293Z,101727.41
2022-10-23T23:59:03.797Z,101716.44
